• Join FlightAware (Why Join?)
  • Login
  • US Flag 
08:48PM EDT


 

Airport Tracker/Info


-or-


 

Live Flight TrackerFlight Track Log ✈ DAL6091 ✈ 04-May-2014 ✈ KPHL - KRDU

Flight Track Log - Related Links

Times and Time Zones

All times are in EDT time to prevent confusion due to time zone crossing. See the DAL6091 flight status page for this flight to view local times or setup timezone preferences in your user account.

Time Position Orientation Groundspeed Altitude Reporting Facility
EDT Latitude Longitude Course Direction KTS MPH feet Rate Location/Type
06:26PM 39.8667 -75.2667 194° South 165 190 700  Level Philadelphia TRACON
06:28PM 39.8167 -75.3167 218° Southwest 210 242 3,500 2,640 Climbing Philadelphia TRACON
06:29PM 39.7500 -75.3333 191° South 237 273 6,600 2,220 Climbing Philadelphia TRACON
06:31PM 39.3789 -75.3394 185° South  Level FlightAware Approximate
06:31PM 39.5883 -75.3492 184° South 253 291 11,100  Level Washington Center
06:32PM 39.2788 -75.3515 194° South  Level FlightAware Approximate
06:32PM 39.5008 -75.3575 184° South 290 334 11,900  Level Washington Center
06:33PM 39.3986 -75.3633 183° South 334 384 12,000 720 Climbing Washington Center
06:34PM 39.2986 -75.3744 185° South 359 413 13,400 1,440 Climbing Washington Center
06:35PM 39.1967 -75.3853 185° South 371 427 14,900 1,500 Climbing Washington Center
06:36PM 39.0967 -75.4017 187° South 371 427 16,400 1,260 Climbing Washington Center
06:37PM 38.9922 -75.4153 186° South 371 427 17,500 1,380 Climbing Washington Center
06:38PM 38.8861 -75.4289 186° South 371 427 19,200 1,560 Climbing Washington Center
06:39PM 38.7778 -75.4478 188° South 382 440 20,700 1,320 Climbing Washington Center
06:40PM 38.6692 -75.4614 186° South 393 452 21,900 660 Climbing Washington Center
06:41PM 38.5506 -75.4828 188° South 414 476 22,000  Climbing Washington Center
06:42PM 38.4253 -75.5017 187° South 432 497 22,000  Level Washington Center
06:43PM 38.3044 -75.5283 190° South 444 511 22,000  Level Washington Center
06:44PM 38.1919 -75.5839 201° Southwest 442 509 22,000  Level Washington Center
06:45PM 38.0792 -75.6392 201° Southwest 442 509 22,000  Level Washington Center
06:46PM 37.9894 -75.7367 221° Southwest 428 493 22,000  Level Washington Center
06:47PM 37.9289 -75.7972 218° Southwest 412 474 22,000  Level Washington Center
06:47PM 37.9186 -75.8103 225° Southwest 428 493 22,000  Level Washington Center
06:47PM 37.8622 -75.8653 218° Southwest 413 475 22,000  Level Washington Center
06:48PM 37.8078 -75.9125 214° Southwest 423 487 22,000  Level Washington Center
06:48PM 37.7828 -75.9464 227° Southwest 408 470 22,000  Level Washington Center
06:49PM 37.7242 -76.0092 220° Southwest 416 479 22,000  Level Washington Center
06:49PM 37.6947 -76.0328 212° Southwest 395 455 22,000  Level Washington Center
06:50PM 37.6319 -76.0953 218° Southwest 399 459 22,000  Level Washington Center
06:50PM 37.6111 -76.1186 222° Southwest 391 450 22,000  Level Washington Center
06:51PM 37.5461 -76.1786 216° Southwest 399 459 22,000  Level Washington Center
06:52PM 37.4728 -76.2539 219° Southwest 426 490 22,000  Level Washington Center
06:53PM 37.3867 -76.3447 220° Southwest 420 483 22,000  Level Washington Center
06:54PM 37.2983 -76.4300 218° Southwest 415 478 22,000  Level Washington Center
06:55PM 37.2017 -76.5281 219° Southwest 415 478 22,000  Level Washington Center
06:56PM 37.1133 -76.6156 218° Southwest 410 472 22,000  Level Washington Center
06:57PM 37.0231 -76.7053 218° Southwest 410 472 22,000  Level Washington Center
06:58PM 36.9344 -76.7925 218° Southwest 410 472 22,000  Level Washington Center
06:59PM 36.8586 -76.8692 219° Southwest 389 448 22,000  Level Washington Center
07:00PM 36.7869 -76.9406 219° Southwest 357 411 22,000  Level Washington Center
07:01PM 36.7214 -77.0042 218° Southwest 340 391 22,000 -180 Level Washington Center
07:02PM 36.6722 -77.1017 238° Southwest 333 383 21,700 -660 Descending Washington Center
07:03PM 36.6186 -77.2144 239° Southwest 358 412 20,700 -1,140 Descending Washington Center
07:04PM 36.5692 -77.3272 241° Southwest 373 429 19,500 -1,620 Descending Washington Center
07:05PM 36.5153 -77.4347 238° Southwest 373 429 17,500 -1,980 Descending Washington Center
07:06PM 36.4678 -77.5419 241° Southwest 368 423 15,600 -1,980 Descending Washington Center
07:07PM 36.4158 -77.6569 241° Southwest 363 418 13,600 -1,680 Descending Washington Center
07:08PM 36.3661 -77.7536 237° Southwest 349 402 12,400 -1,140 Descending Washington Center
07:09PM 36.3203 -77.8553 241° Southwest 349 402 11,400 -1,020 Descending Washington Center
07:09PM 36.3053 -77.8858 239° Southwest 339 390 11,100 -1,020 Descending Washington Center
07:10PM 36.2922 -77.9164 242° Southwest 338 389 10,800 -1,020 Descending Washington Center
07:10PM 36.2725 -77.9569 239° Southwest 349 402 10,400 -900 Descending Washington Center
07:10PM 36.2486 -78.0078 240° Southwest 329 379 10,000 -420 Descending Washington Center
07:11PM 36.2267 -78.0536 239° Southwest 339 390 10,000  Level Washington Center
07:11PM 36.2028 -78.1017 238° Southwest 322 371 10,000  Level Washington Center
07:12PM 36.1850 -78.1525 247° West 328 377 10,000  Level Washington Center
07:12PM 36.1675 -78.1983 245° Southwest 304 350 10,000 -240 Level Washington Center
07:13PM 36.1561 -78.2367 250° West 299 344 9,800 -840 Descending Washington Center
07:13PM 36.1383 -78.2822 244° Southwest 252 290 9,200 -1,080 Descending Washington Center
07:14PM 36.1250 -78.3203 247° West 266 306 8,700 -1,200 Descending Washington Center
07:15PM 36.1092 -78.3739 250° West 252 290 7,900 -1,380 Descending Washington Center
07:15PM 36.1003 -78.4017 248° West 261 300 7,400 -2,100 Descending Washington Center
07:16PM 36.0803 -78.4525 244° Southwest 249 287 5,800 -2,100 Descending Washington Center
07:16PM 36.0733 -78.4806 253° West 256 295 5,300 -1,800 Descending Washington Center
07:17PM 36.0531 -78.5336 245° Southwest 251 289 4,000 -1,800 Descending Washington Center
07:17PM 36.0464 -78.5592 252° West 256 295 3,500 -1,500 Descending Washington Center
07:18PM 36.0283 -78.6072 245° Southwest 237 273 2,500 -1,380 Descending Washington Center
07:18PM 36.0194 -78.6275 242° Southwest 245 282 2,100 -600 Descending Washington Center
07:19PM 35.9917 -78.6597 223° Southwest 222 255 2,000 -120 Descending Washington Center
07:19PM 35.9744 -78.6822 227° Southwest 229 264 2,000  Level Washington Center
07:19PM 35.9572 -78.7019 223° Southwest 194 223 2,000 -480 Level Washington Center
07:20PM 35.9247 -78.7419 225° Southwest 143 165 1,300 -720 Descending Washington Center
07:21PM 35.8967 -78.7742 223° Southwest 133 153 600 -720 Descending Washington Center
07:23PM 35.8776 -78.7875 North  Level Estimated
07:30PM 35.8776 -78.7875 North  Level Estimated